Time;durP1;ratioP1;P1;durP2;ratioP2;P2;SDS_P1;SDS_P2;PMS_P1;PMS_P2;Temp;Humidity;BMP_temperature;BMP_pressure;BME280_temperature;BME280_humidity;BME280_pressure;Samples;Min_cycle;Max_cycle;Signal;HPM_P1;HPM_P2
2023/04/05 00:00:31;;;;;;;8.27;4.55;;;;;;;;;;4998958;28;20520;-77
2023/04/05 00:02:58;;;;;;;6.70;4.88;;;;;;;;;;4982093;28;20240;-77
2023/04/05 00:05:33;;;;;;;8.05;4.65;;;;;;;;;;4998000;28;20198;-77
2023/04/05 00:08:00;;;;;;;14.45;4.80;;;;;;;;;;4998288;28;20178;-77
2023/04/05 00:10:30;;;;;;;9.60;4.88;;;;;;;;;;4999445;28;20186;-77
2023/04/05 00:12:56;;;;;;;6.95;4.75;;;;;;;;;;4999138;28;20203;-78
2023/04/05 00:15:22;;;;;;;8.60;4.60;;;;;;;;;;4997505;28;20184;-77
2023/04/05 00:17:48;;;;;;;9.02;3.88;;;;;;;;;;4997877;28;20532;-77
2023/04/05 00:20:14;;;;;;;8.27;4.57;;;;;;;;;;4997644;28;20193;-78
2023/04/05 00:22:45;;;;;;;8.63;4.57;;;;;;;;;;4981620;28;20194;-77
2023/04/05 00:25:11;;;;;;;6.50;4.32;;;;;;;;;;4997918;28;20222;-77
2023/04/05 00:27:37;;;;;;;6.95;4.20;;;;;;;;;;4997800;28;20174;-78
2023/04/05 00:30:03;;;;;;;9.35;4.30;;;;;;;;;;4997120;28;20189;-78
2023/04/05 00:32:29;;;;;;;5.82;4.82;;;;;;;;;;4998643;28;20252;-79
2023/04/05 00:34:56;;;;;;;7.50;4.25;;;;;;;;;;4998661;28;20186;-77
2023/04/05 00:37:22;;;;;;;9.30;4.65;;;;;;;;;;4997511;28;20171;-77
2023/04/05 00:39:48;;;;;;;10.15;5.15;;;;;;;;;;4997987;28;20180;-77
2023/04/05 00:42:14;;;;;;;7.38;4.43;;;;;;;;;;4997541;28;20175;-77
2023/04/05 00:44:40;;;;;;;6.07;4.20;;;;;;;;;;4997328;28;20173;-77
2023/04/05 00:47:06;;;;;;;7.15;4.47;;;;;;;;;;4998636;28;20207;-77
2023/04/05 00:49:33;;;;;;;7.07;5.22;;;;;;;;;;4998224;28;20533;-79
2023/04/05 00:51:59;;;;;;;7.43;4.70;;;;;;;;;;4997077;28;20255;-78
2023/04/05 00:54:29;;;;;;;8.25;4.80;;;;;;;;;;4998817;28;20167;-78
2023/04/05 00:56:56;;;;;;;7.53;4.57;;;;;;;;;;4996003;28;20280;-77
2023/04/05 00:59:22;;;;;;;8.98;4.53;;;;;;;;;;4998844;28;20280;-77
2023/04/05 01:01:53;;;;;;;7.22;4.30;;;;;;;;;;4997966;28;20266;-78
2023/04/05 01:04:20;;;;;;;6.35;3.90;;;;;;;;;;4998163;28;20228;-78
2023/04/05 01:07:05;;;;;;;8.90;4.35;;;;;;;;;;4979737;28;20217;-78
2023/04/05 01:09:34;;;;;;;11.60;4.38;;;;;;;;;;4997699;28;20179;-83
2023/04/05 01:12:02;;;;;;;7.88;4.35;;;;;;;;;;4996627;28;20248;-78
2023/04/05 01:14:28;;;;;;;9.25;5.25;;;;;;;;;;4996334;28;20235;-78
2023/04/05 01:16:57;;;;;;;8.05;4.70;;;;;;;;;;4980670;28;20185;-77
2023/04/05 01:19:26;;;;;;;8.95;5.25;;;;;;;;;;4996659;28;20184;-78
2023/04/05 01:21:57;;;;;;;7.32;4.15;;;;;;;;;;4997134;28;20219;-78
2023/04/05 01:24:45;;;;;;;7.00;4.53;;;;;;;;;;4996071;28;20226;-77
2023/04/05 01:27:18;;;;;;;11.30;3.97;;;;;;;;;;4996411;28;20274;-77
2023/04/05 01:29:52;;;;;;;6.40;4.45;;;;;;;;;;4997439;28;20171;-77
2023/04/05 01:32:18;;;;;;;6.55;4.20;;;;;;;;;;4996473;28;20202;-77
2023/04/05 01:35:04;;;;;;;5.97;4.00;;;;;;;;;;4997548;28;20179;-78
2023/04/05 01:37:31;;;;;;;6.05;4.15;;;;;;;;;;4996276;28;20186;-78
2023/04/05 01:39:58;;;;;;;7.43;4.63;;;;;;;;;;4997030;28;20167;-78
2023/04/05 01:42:25;;;;;;;10.35;4.30;;;;;;;;;;4996507;28;20185;-77
2023/04/05 01:44:52;;;;;;;6.55;4.50;;;;;;;;;;4995710;28;20176;-77
2023/04/05 01:47:19;;;;;;;7.95;5.05;;;;;;;;;;4997251;28;20563;-77
2023/04/05 01:49:45;;;;;;;8.10;4.30;;;;;;;;;;4995716;28;20211;-78
2023/04/05 01:52:11;;;;;;;9.65;4.70;;;;;;;;;;4997359;28;20269;-77
2023/04/05 01:54:37;;;;;;;7.00;3.75;;;;;;;;;;4996176;28;20224;-77
2023/04/05 01:57:04;;;;;;;7.60;4.03;;;;;;;;;;4996947;28;20178;-77
2023/04/05 01:59:30;;;;;;;7.00;4.30;;;;;;;;;;4995986;28;20651;-77
2023/04/05 02:01:56;;;;;;;4.80;3.72;;;;;;;;;;4979324;28;20286;-77
2023/04/05 02:04:22;;;;;;;6.63;4.72;;;;;;;;;;4996033;28;20577;-77
2023/04/05 02:06:48;;;;;;;6.65;4.35;;;;;;;;;;4997829;28;20172;-76
2023/04/05 02:09:14;;;;;;;5.60;4.40;;;;;;;;;;5000371;28;20209;-77
2023/04/05 02:11:40;;;;;;;7.22;4.57;;;;;;;;;;4999624;28;20247;-77
2023/04/05 02:14:07;;;;;;;5.10;3.70;;;;;;;;;;5000953;28;20185;-78
2023/04/05 02:16:33;;;;;;;6.15;3.40;;;;;;;;;;4999908;28;20171;-78
2023/04/05 02:18:59;;;;;;;6.10;4.20;;;;;;;;;;4983318;28;20199;-78
2023/04/05 02:21:26;;;;;;;7.35;4.20;;;;;;;;;;4999510;28;20201;-78
2023/04/05 02:23:52;;;;;;;5.25;4.07;;;;;;;;;;4999224;28;20176;-77
2023/04/05 02:26:18;;;;;;;6.38;4.20;;;;;;;;;;5000544;28;20182;-77
2023/04/05 02:28:44;;;;;;;6.10;4.35;;;;;;;;;;5000237;28;20171;-77
2023/04/05 02:31:11;;;;;;;8.15;3.90;;;;;;;;;;5000432;28;20196;-78
2023/04/05 02:33:38;;;;;;;7.78;4.40;;;;;;;;;;5000455;28;20203;-77
2023/04/05 02:36:08;;;;;;;8.63;5.22;;;;;;;;;;4999189;28;20170;-77
2023/04/05 02:38:34;;;;;;;7.47;4.80;;;;;;;;;;5000943;28;20171;-77
2023/04/05 02:41:00;;;;;;;5.93;5.32;;;;;;;;;;4998346;28;20189;-77
2023/04/05 02:43:26;;;;;;;5.63;4.15;;;;;;;;;;4998216;28;20207;-77
2023/04/05 02:45:52;;;;;;;6.57;4.15;;;;;;;;;;4999556;28;20184;-78
2023/04/05 02:48:18;;;;;;;8.73;4.88;;;;;;;;;;5000217;28;20579;-77
2023/04/05 02:50:51;;;;;;;9.68;5.40;;;;;;;;;;4998042;28;20191;-78
2023/04/05 02:53:17;;;;;;;7.63;4.70;;;;;;;;;;4998214;28;20210;-77
2023/04/05 02:55:43;;;;;;;8.20;4.65;;;;;;;;;;4998525;28;20533;-77
2023/04/05 02:58:09;;;;;;;9.48;6.18;;;;;;;;;;4998365;28;20193;-78
2023/04/05 03:00:35;;;;;;;7.88;5.47;;;;;;;;;;4999830;28;20174;-76
2023/04/05 03:03:01;;;;;;;8.25;5.15;;;;;;;;;;4981958;28;20244;-78
2023/04/05 03:05:28;;;;;;;8.95;6.00;;;;;;;;;;4998455;28;20176;-78
2023/04/05 03:07:54;;;;;;;7.93;4.78;;;;;;;;;;4981792;28;20191;-78
2023/04/05 03:10:21;;;;;;;8.13;5.22;;;;;;;;;;4999234;28;20277;-78
2023/04/05 03:12:50;;;;;;;8.43;6.13;;;;;;;;;;4999448;28;20565;-78
2023/04/05 03:15:16;;;;;;;7.68;5.57;;;;;;;;;;4998222;28;20260;-78
2023/04/05 03:17:43;;;;;;;9.93;5.75;;;;;;;;;;4998243;28;20184;-78
2023/04/05 03:20:09;;;;;;;9.18;5.43;;;;;;;;;;4999058;28;20174;-78
2023/04/05 03:22:35;;;;;;;8.05;5.10;;;;;;;;;;4999501;28;20194;-78
2023/04/05 03:25:01;;;;;;;11.85;5.25;;;;;;;;;;4982328;28;20629;-76
2023/04/05 03:27:28;;;;;;;6.82;5.25;;;;;;;;;;4998564;28;20238;-77
2023/04/05 03:29:54;;;;;;;14.35;6.22;;;;;;;;;;4997877;28;20179;-78
2023/04/05 03:32:20;;;;;;;8.38;4.93;;;;;;;;;;4998360;28;20222;-78
2023/04/05 03:34:46;;;;;;;8.73;6.40;;;;;;;;;;4999270;28;20547;-78
2023/04/05 03:37:12;;;;;;;10.38;5.72;;;;;;;;;;4999817;28;20172;-78
2023/04/05 03:39:38;;;;;;;11.85;5.88;;;;;;;;;;4998053;28;20275;-78
2023/04/05 03:42:04;;;;;;;6.70;5.15;;;;;;;;;;4997868;28;20179;-77
2023/04/05 03:44:30;;;;;;;10.32;5.65;;;;;;;;;;4999929;28;20530;-77
2023/04/05 03:46:57;;;;;;;8.50;6.05;;;;;;;;;;4999087;28;20168;-79
2023/04/05 03:49:23;;;;;;;8.93;5.65;;;;;;;;;;4998985;28;20180;-78
2023/04/05 03:51:49;;;;;;;9.27;4.78;;;;;;;;;;4998973;28;20210;-78
2023/04/05 03:54:15;;;;;;;9.27;5.25;;;;;;;;;;4998040;28;20270;-77
2023/04/05 03:56:41;;;;;;;10.73;5.50;;;;;;;;;;4999898;28;20205;-80
2023/04/05 03:59:08;;;;;;;9.98;5.78;;;;;;;;;;4999500;28;20180;-77
2023/04/05 04:01:35;;;;;;;10.20;6.30;;;;;;;;;;5000059;28;20179;-77
2023/04/05 04:04:03;;;;;;;16.17;7.35;;;;;;;;;;4998196;28;20358;-78
2023/04/05 04:06:29;;;;;;;10.05;6.20;;;;;;;;;;4999281;28;20177;-77
2023/04/05 04:08:56;;;;;;;8.68;5.85;;;;;;;;;;4997126;28;20172;-78
2023/04/05 04:11:22;;;;;;;11.30;6.43;;;;;;;;;;4997523;28;20234;-77
2023/04/05 04:13:48;;;;;;;8.25;5.40;;;;;;;;;;4997727;28;20215;-76
2023/04/05 04:16:16;;;;;;;9.25;6.22;;;;;;;;;;4981910;28;20556;-76
2023/04/05 04:18:42;;;;;;;12.25;5.65;;;;;;;;;;4997334;28;20176;-81
2023/04/05 04:21:09;;;;;;;9.73;5.93;;;;;;;;;;4997189;28;20288;-77
2023/04/05 04:23:37;;;;;;;14.10;6.10;;;;;;;;;;4997704;28;20180;-78
2023/04/05 04:26:03;;;;;;;10.65;6.15;;;;;;;;;;4998556;28;20190;-77
2023/04/05 04:28:33;;;;;;;10.65;6.30;;;;;;;;;;4997417;28;20179;-78
2023/04/05 04:31:03;;;;;;;9.07;6.13;;;;;;;;;;4997128;28;20297;-78
2023/04/05 04:33:29;;;;;;;12.82;6.60;;;;;;;;;;4997012;28;20211;-77
2023/04/05 04:35:56;;;;;;;12.38;7.65;;;;;;;;;;4998525;28;20566;-77
2023/04/05 04:38:24;;;;;;;13.68;7.25;;;;;;;;;;4998569;28;20199;-78
2023/04/05 04:40:52;;;;;;;12.45;6.28;;;;;;;;;;4998690;28;20210;-78
2023/04/05 04:43:26;;;;;;;12.35;6.93;;;;;;;;;;4997642;28;20176;-79
2023/04/05 04:49:31;;;;;;;12.10;6.25;;;;;;;;;;4961622;28;20180;-77
2023/04/05 04:51:58;;;;;;;11.63;5.97;;;;;;;;;;4965206;28;20223;-77
2023/04/05 04:54:24;;;;;;;10.75;6.32;;;;;;;;;;4997071;28;20243;-77
2023/04/05 04:56:50;;;;;;;9.88;5.53;;;;;;;;;;4996601;28;20587;-78
2023/04/05 04:59:16;;;;;;;10.77;7.35;;;;;;;;;;4996791;28;20172;-77
2023/04/05 05:01:44;;;;;;;10.13;6.43;;;;;;;;;;4996770;28;20233;-77
2023/04/05 05:04:11;;;;;;;10.00;6.15;;;;;;;;;;4998931;28;20223;-78
2023/04/05 05:06:37;;;;;;;9.57;5.88;;;;;;;;;;4981031;28;20210;-77
2023/04/05 05:09:03;;;;;;;17.02;6.18;;;;;;;;;;4998467;28;20176;-77
2023/04/05 05:11:29;;;;;;;9.20;6.25;;;;;;;;;;4998836;28;20191;-77
2023/04/05 05:13:55;;;;;;;12.68;5.95;;;;;;;;;;4981126;28;20387;-78
2023/04/05 05:16:22;;;;;;;11.25;6.60;;;;;;;;;;4998227;28;20176;-77
2023/04/05 05:18:49;;;;;;;12.32;7.10;;;;;;;;;;4980952;28;20175;-77
2023/04/05 05:21:16;;;;;;;12.73;6.90;;;;;;;;;;4997223;28;20230;-76
2023/04/05 05:23:42;;;;;;;9.85;5.80;;;;;;;;;;4998047;28;20180;-77
2023/04/05 05:26:08;;;;;;;9.82;6.05;;;;;;;;;;4997058;28;20176;-76
2023/04/05 05:28:34;;;;;;;11.60;6.43;;;;;;;;;;4996766;28;20186;-77
2023/04/05 05:31:00;;;;;;;14.18;7.38;;;;;;;;;;4996854;28;20179;-78
2023/04/05 05:33:26;;;;;;;12.40;7.55;;;;;;;;;;4996955;28;20250;-77
2023/04/05 05:35:52;;;;;;;11.55;7.28;;;;;;;;;;4996998;28;20659;-77
2023/04/05 05:38:18;;;;;;;11.23;7.15;;;;;;;;;;4998552;28;20183;-78
2023/04/05 05:40:44;;;;;;;15.15;7.60;;;;;;;;;;4997731;28;20310;-78
2023/04/05 05:43:10;;;;;;;15.55;7.82;;;;;;;;;;4984192;28;20195;-77
2023/04/05 05:45:36;;;;;;;10.70;7.10;;;;;;;;;;5001399;28;20179;-77
2023/04/05 05:48:02;;;;;;;12.80;7.45;;;;;;;;;;5001867;28;20515;-75
2023/04/05 05:50:31;;;;;;;12.85;7.55;;;;;;;;;;5002063;28;20184;-78
2023/04/05 05:52:58;;;;;;;11.93;7.60;;;;;;;;;;5000499;28;20215;-78
2023/04/05 05:55:24;;;;;;;14.63;7.50;;;;;;;;;;5002202;28;20658;-78
2023/04/05 05:57:51;;;;;;;14.93;8.07;;;;;;;;;;5000970;28;20179;-77
2023/04/05 06:00:18;;;;;;;14.43;7.95;;;;;;;;;;5001149;28;20266;-77
2023/04/05 06:02:44;;;;;;;16.27;7.78;;;;;;;;;;5002046;28;20209;-77
2023/04/05 06:05:10;;;;;;;13.82;7.72;;;;;;;;;;5001930;28;20171;-77
2023/04/05 06:07:37;;;;;;;13.00;7.63;;;;;;;;;;5000815;28;20194;-78
2023/04/05 06:10:04;;;;;;;13.30;7.47;;;;;;;;;;5000854;28;20183;-78
2023/04/05 06:12:30;;;;;;;15.15;8.00;;;;;;;;;;4984862;28;20230;-78
2023/04/05 06:14:56;;;;;;;13.07;7.78;;;;;;;;;;5000504;28;20176;-76
2023/04/05 06:17:22;;;;;;;9.55;6.68;;;;;;;;;;4984695;28;20222;-77
2023/04/05 06:19:48;;;;;;;12.43;7.45;;;;;;;;;;4984244;28;20184;-77
2023/04/05 06:22:14;;;;;;;12.25;8.10;;;;;;;;;;4999646;28;20258;-78
2023/04/05 06:24:40;;;;;;;11.98;7.95;;;;;;;;;;5000470;28;20183;-78
2023/04/05 06:27:07;;;;;;;11.23;7.85;;;;;;;;;;5000161;28;20578;-77
2023/04/05 06:29:33;;;;;;;12.93;7.07;;;;;;;;;;5001346;28;20179;-77
2023/04/05 06:31:59;;;;;;;14.65;7.55;;;;;;;;;;4999802;28;20216;-77
2023/04/05 06:34:25;;;;;;;11.50;7.53;;;;;;;;;;5001422;28;20179;-78
2023/04/05 06:36:51;;;;;;;10.73;7.78;;;;;;;;;;5001371;28;20191;-80
2023/04/05 06:39:18;;;;;;;14.45;8.55;;;;;;;;;;4984594;28;20192;-77
2023/04/05 06:41:44;;;;;;;13.10;8.23;;;;;;;;;;5000308;28;20172;-78
2023/04/05 06:44:10;;;;;;;12.98;7.93;;;;;;;;;;5001014;28;20210;-78
2023/04/05 06:46:36;;;;;;;9.50;7.40;;;;;;;;;;5000424;28;20179;-76
2023/04/05 06:49:02;;;;;;;18.50;9.20;;;;;;;;;;5000548;28;20184;-77
2023/04/05 06:51:28;;;;;;;12.50;7.60;;;;;;;;;;5000067;28;20653;-78
2023/04/05 06:53:55;;;;;;;14.65;7.75;;;;;;;;;;4982532;28;20888;-78
2023/04/05 06:56:22;;;;;;;13.50;9.10;;;;;;;;;;5000744;28;20184;-77
2023/04/05 06:58:49;;;;;;;11.60;7.70;;;;;;;;;;5001137;28;20172;-78
2023/04/05 07:01:16;;;;;;;21.25;9.23;;;;;;;;;;4999803;28;20645;-79
2023/04/05 07:03:42;;;;;;;9.77;7.82;;;;;;;;;;4999585;28;20235;-78
2023/04/05 07:06:09;;;;;;;12.85;8.02;;;;;;;;;;5000284;28;20256;-78
2023/04/05 07:08:35;;;;;;;12.38;7.63;;;;;;;;;;4999360;28;20176;-78
2023/04/05 07:11:01;;;;;;;16.35;8.27;;;;;;;;;;5000558;28;20660;-78
2023/04/05 07:13:27;;;;;;;10.70;8.32;;;;;;;;;;4999881;28;20576;-77
2023/04/05 07:15:59;;;;;;;10.60;6.70;;;;;;;;;;5000774;28;20171;-82
2023/04/05 07:18:25;;;;;;;10.70;7.30;;;;;;;;;;4999558;28;20181;-78
2023/04/05 07:20:55;;;;;;;16.50;7.32;;;;;;;;;;4999381;28;20214;-77
2023/04/05 07:23:21;;;;;;;13.10;8.70;;;;;;;;;;5000007;28;20174;-77
2023/04/05 07:25:47;;;;;;;11.38;7.20;;;;;;;;;;4998796;28;20546;-78
2023/04/05 07:28:13;;;;;;;14.52;7.50;;;;;;;;;;4998943;28;20187;-77
2023/04/05 07:30:39;;;;;;;17.33;8.73;;;;;;;;;;5000160;28;20167;-76
2023/04/05 07:33:05;;;;;;;11.13;7.35;;;;;;;;;;4982935;28;20701;-77
2023/04/05 07:35:31;;;;;;;15.43;7.68;;;;;;;;;;5000790;28;20187;-76
2023/04/05 07:37:57;;;;;;;11.43;7.72;;;;;;;;;;4982736;28;20234;-78
2023/04/05 07:40:23;;;;;;;13.98;8.63;;;;;;;;;;4982921;28;20226;-78
2023/04/05 07:42:49;;;;;;;17.17;9.48;;;;;;;;;;4999014;28;20567;-77
2023/04/05 07:45:15;;;;;;;13.95;8.32;;;;;;;;;;4983077;28;20186;-78
2023/04/05 07:47:41;;;;;;;10.90;7.63;;;;;;;;;;4999004;28;20278;-77
2023/04/05 07:50:10;;;;;;;14.65;8.48;;;;;;;;;;4982327;28;20265;-77
2023/04/05 07:52:36;;;;;;;17.45;9.43;;;;;;;;;;4999049;28;20235;-77
2023/04/05 07:55:02;;;;;;;16.10;9.35;;;;;;;;;;4998109;28;20171;-76
2023/04/05 07:57:28;;;;;;;11.60;7.88;;;;;;;;;;4999091;28;20172;-78
2023/04/05 07:59:55;;;;;;;13.43;8.85;;;;;;;;;;4998499;28;20182;-78
2023/04/05 08:02:21;;;;;;;13.13;8.68;;;;;;;;;;4998227;28;20176;-79
2023/04/05 08:04:47;;;;;;;13.05;7.90;;;;;;;;;;4997281;28;20234;-76
2023/04/05 08:07:13;;;;;;;13.02;9.20;;;;;;;;;;4997858;28;20179;-77
2023/04/05 08:09:39;;;;;;;16.05;7.80;;;;;;;;;;4999064;28;20179;-78
2023/04/05 08:12:05;;;;;;;11.98;7.55;;;;;;;;;;4997323;28;20286;-78
2023/04/05 08:14:32;;;;;;;14.10;7.50;;;;;;;;;;4998142;28;20174;-78
2023/04/05 08:16:58;;;;;;;9.73;7.10;;;;;;;;;;4981988;28;20182;-80
2023/04/05 08:19:24;;;;;;;8.77;6.65;;;;;;;;;;4997803;28;20180;-78
2023/04/05 08:21:50;;;;;;;10.23;7.18;;;;;;;;;;4999255;28;20168;-78
2023/04/05 08:24:16;;;;;;;16.00;7.00;;;;;;;;;;4997519;28;20176;-78
2023/04/05 08:26:42;;;;;;;10.35;6.93;;;;;;;;;;4982000;28;20216;-77
2023/04/05 08:29:09;;;;;;;13.45;7.22;;;;;;;;;;4999983;28;20713;-86
2023/04/05 08:31:35;;;;;;;10.27;7.15;;;;;;;;;;4999516;28;20191;-86
2023/04/05 08:34:01;;;;;;;12.32;6.93;;;;;;;;;;4999108;28;20222;-87
2023/04/05 08:36:27;;;;;;;11.43;6.88;;;;;;;;;;4999703;28;20175;-86
2023/04/05 08:38:53;;;;;;;14.82;7.55;;;;;;;;;;5000627;28;20175;-88
2023/04/05 08:41:21;;;;;;;12.40;6.90;;;;;;;;;;5000364;28;20178;-87
2023/04/05 08:43:57;;;;;;;10.52;7.45;;;;;;;;;;4998962;28;20211;-86
2023/04/05 08:46:24;;;;;;;13.13;7.18;;;;;;;;;;4999076;28;20302;-83
2023/04/05 08:48:50;;;;;;;16.13;7.18;;;;;;;;;;4998141;28;20172;-83
2023/04/05 08:51:23;;;;;;;9.35;6.07;;;;;;;;;;4997492;28;20183;-82
2023/04/05 08:53:49;;;;;;;9.50;5.90;;;;;;;;;;5005584;28;20207;-82
2023/04/05 08:56:18;;;;;;;11.77;6.87;;;;;;;;;;5004581;28;20422;-80
2023/04/05 08:58:48;;;;;;;8.27;5.90;;;;;;;;;;4996351;28;20772;-81
2023/04/05 09:01:14;;;;;;;10.67;6.60;;;;;;;;;;4996308;28;20415;-81
2023/04/05 09:03:42;;;;;;;9.33;6.70;;;;;;;;;;4998110;28;20468;-84
2023/04/05 09:06:09;;;;;;;9.47;7.67;;;;;;;;;;4995772;28;20418;-83
2023/04/05 09:08:35;;;;;;;9.20;5.90;;;;;;;;;;4995435;28;20442;-83
2023/04/05 09:11:01;;;;;;;10.20;7.00;;;;;;;;;;5027343;28;20776;-84
2023/04/05 09:13:27;;;;;;;10.13;6.47;;;;;;;;;;4995334;28;20480;-83
2023/04/05 09:15:53;;;;;;;14.17;8.57;;;;;;;;;;4978869;28;20400;-83
2023/04/05 09:18:19;;;;;;;11.57;7.20;;;;;;;;;;4994523;28;20426;-82
2023/04/05 09:20:45;;;;;;;11.87;6.80;;;;;;;;;;5024447;28;20414;-82
2023/04/05 09:23:11;;;;;;;13.00;7.33;;;;;;;;;;5033853;28;20399;-81
2023/04/05 09:25:38;;;;;;;10.77;7.23;;;;;;;;;;5033892;28;20913;-82
2023/04/05 09:28:11;;;;;;;9.13;6.17;;;;;;;;;;5035271;28;20399;-83
2023/04/05 09:30:37;;;;;;;11.50;6.63;;;;;;;;;;5037173;28;20409;-82
2023/04/05 09:33:06;;;;;;;10.30;6.97;;;;;;;;;;5018061;28;20469;-83
2023/04/05 09:35:33;;;;;;;10.43;6.80;;;;;;;;;;5035648;28;20380;-85
2023/04/05 09:37:59;;;;;;;7.57;6.10;;;;;;;;;;5034818;28;20380;-83
2023/04/05 09:40:43;;;;;;;9.37;6.67;;;;;;;;;;5034115;28;20437;-83
2023/04/05 09:43:09;;;;;;;6.83;6.13;;;;;;;;;;5035362;28;20379;-82
2023/04/05 09:45:44;;;;;;;10.03;6.60;;;;;;;;;;5034097;28;20424;-82
2023/04/05 09:48:12;;;;;;;12.80;7.10;;;;;;;;;;5034733;28;20385;-82
2023/04/05 09:50:38;;;;;;;13.00;7.30;;;;;;;;;;5034272;28;20737;-84
2023/04/05 09:53:18;;;;;;;11.03;7.13;;;;;;;;;;5033622;28;20442;-83
2023/04/05 09:55:44;;;;;;;8.53;5.40;;;;;;;;;;5034439;28;20422;-83
2023/04/05 09:58:18;;;;;;;10.10;6.33;;;;;;;;;;5033884;28;20383;-83
2023/04/05 10:00:51;;;;;;;7.17;5.53;;;;;;;;;;5034544;28;20407;-82
2023/04/05 10:03:18;;;;;;;10.50;6.07;;;;;;;;;;5033630;28;20462;-83
2023/04/05 10:05:45;;;;;;;8.37;6.00;;;;;;;;;;5021666;28;20453;-83
2023/04/05 10:08:11;;;;;;;6.20;5.60;;;;;;;;;;5014640;28;20396;-84
2023/04/05 10:10:45;;;;;;;7.93;6.20;;;;;;;;;;5013569;28;20399;-83
2023/04/05 10:13:12;;;;;;;9.57;6.80;;;;;;;;;;5015542;28;20479;-84
2023/04/05 10:15:38;;;;;;;8.43;5.60;;;;;;;;;;5014474;28;20397;-83
2023/04/05 10:18:10;;;;;;;7.63;6.20;;;;;;;;;;5014107;28;20389;-87
2023/04/05 10:20:40;;;;;;;7.97;4.80;;;;;;;;;;5013317;28;20441;-84
2023/04/05 10:23:06;;;;;;;8.77;6.43;;;;;;;;;;5013616;28;20389;-84
2023/04/05 10:25:43;;;;;;;6.87;5.30;;;;;;;;;;5013672;28;20393;-83
2023/04/05 10:28:28;;;;;;;7.47;6.27;;;;;;;;;;5014519;28;20457;-83
2023/04/05 10:30:58;;;;;;;7.07;5.33;;;;;;;;;;5017513;28;20409;-83
2023/04/05 10:33:31;;;;;;;7.20;5.97;;;;;;;;;;5017175;28;20488;-83
2023/04/05 10:36:00;;;;;;;9.40;6.00;;;;;;;;;;5017291;28;20425;-83
2023/04/05 10:38:27;;;;;;;7.00;6.07;;;;;;;;;;5017737;28;20411;-82
2023/04/05 10:41:09;;;;;;;6.13;5.40;;;;;;;;;;5018369;28;20460;-82
2023/04/05 10:43:37;;;;;;;11.03;5.90;;;;;;;;;;5018404;28;20429;-83
2023/04/05 10:46:03;;;;;;;7.30;5.10;;;;;;;;;;5016755;28;20425;-81
2023/04/05 10:48:48;;;;;;;7.73;6.00;;;;;;;;;;4992907;28;20442;-82
2023/04/05 10:51:15;;;;;;;11.63;6.90;;;;;;;;;;4996808;28;20463;-82
2023/04/05 10:53:41;;;;;;;7.20;5.50;;;;;;;;;;4998047;28;20491;-81
2023/04/05 10:56:07;;;;;;;7.33;6.00;;;;;;;;;;4997392;28;20415;-83
2023/04/05 10:58:35;;;;;;;8.70;5.93;;;;;;;;;;5000158;28;20442;-80
2023/04/05 11:01:03;;;;;;;9.27;5.93;;;;;;;;;;5000375;28;20442;-82
2023/04/05 11:04:01;;;;;;;6.30;5.70;;;;;;;;;;4998685;28;20517;-81
2023/04/05 11:06:30;;;;;;;5.93;5.33;;;;;;;;;;4977036;28;20419;-80
2023/04/05 11:09:09;;;;;;;7.40;6.17;;;;;;;;;;4998145;28;20784;-81
2023/04/05 11:11:39;;;;;;;7.30;5.70;;;;;;;;;;4996353;28;20433;-81
2023/04/05 11:14:17;;;;;;;8.33;5.80;;;;;;;;;;4996219;28;20505;-81
2023/04/05 11:16:45;;;;;;;8.50;7.03;;;;;;;;;;4997506;28;20489;-81
2023/04/05 11:19:19;;;;;;;9.67;6.97;;;;;;;;;;4996866;28;20417;-81
2023/04/05 11:21:46;;;;;;;7.53;6.73;;;;;;;;;;4998246;28;20381;-80
2023/04/05 11:24:15;;;;;;;7.83;6.17;;;;;;;;;;4997795;28;20415;-82
2023/04/05 11:26:41;;;;;;;9.57;6.57;;;;;;;;;;4996345;28;20396;-83
2023/04/05 11:29:07;;;;;;;7.03;5.63;;;;;;;;;;4997903;28;20419;-82
2023/04/05 11:31:33;;;;;;;7.67;5.87;;;;;;;;;;4996091;28;20441;-82
2023/04/05 11:34:08;;;;;;;12.80;6.23;;;;;;;;;;4980574;28;20539;-80
2023/04/05 11:36:35;;;;;;;7.10;6.40;;;;;;;;;;4998678;28;20771;-79
2023/04/05 11:39:22;;;;;;;9.37;6.30;;;;;;;;;;4997253;28;20455;-80
2023/04/05 11:41:56;;;;;;;8.40;6.00;;;;;;;;;;4999489;28;20393;-81
2023/04/05 11:44:23;;;;;;;10.83;6.10;;;;;;;;;;4997081;28;20428;-81
2023/04/05 11:46:49;;;;;;;13.63;6.17;;;;;;;;;;5012491;28;20492;-81
2023/04/05 11:49:15;;;;;;;7.80;5.50;;;;;;;;;;4995554;28;20417;-82
2023/04/05 11:51:41;;;;;;;7.43;6.60;;;;;;;;;;5015583;28;20427;-82
2023/04/05 11:54:10;;;;;;;6.97;5.60;;;;;;;;;;5005173;28;20449;-82
2023/04/05 11:56:37;;;;;;;6.83;6.10;;;;;;;;;;4998415;28;20960;-81
2023/04/05 11:59:03;;;;;;;7.60;6.80;;;;;;;;;;5016051;28;20812;-80
2023/04/05 12:01:29;;;;;;;8.20;7.00;;;;;;;;;;4998355;28;20393;-80
2023/04/05 12:03:55;;;;;;;8.53;6.50;;;;;;;;;;5014614;28;20444;-81
2023/04/05 12:06:22;;;;;;;7.50;6.53;;;;;;;;;;5015217;28;20393;-82
2023/04/05 12:08:51;;;;;;;7.37;5.90;;;;;;;;;;5016765;28;20377;-81
2023/04/05 12:11:28;;;;;;;10.37;7.80;;;;;;;;;;5014904;28;20384;-83
2023/04/05 12:13:57;;;;;;;7.50;6.30;;;;;;;;;;5014553;28;20465;-83
2023/04/05 12:16:23;;;;;;;6.73;6.00;;;;;;;;;;5014493;28;20781;-83
2023/04/05 12:19:07;;;;;;;7.40;5.97;;;;;;;;;;5015840;28;20410;-82
2023/04/05 12:21:33;;;;;;;9.10;7.27;;;;;;;;;;5014792;28;20405;-83
2023/04/05 12:23:59;;;;;;;9.47;6.80;;;;;;;;;;5014568;28;20418;-83
2023/04/05 12:26:25;;;;;;;7.07;6.37;;;;;;;;;;4998199;28;20392;-84
2023/04/05 12:28:55;;;;;;;9.70;6.70;;;;;;;;;;4997666;28;21066;-82
2023/04/05 12:31:38;;;;;;;7.00;6.30;;;;;;;;;;4986141;28;20407;-84
2023/04/05 12:34:04;;;;;;;9.60;6.90;;;;;;;;;;4993809;28;20438;-84
2023/04/05 12:36:31;;;;;;;7.37;6.13;;;;;;;;;;5007490;28;20751;-82
2023/04/05 12:38:57;;;;;;;8.33;6.20;;;;;;;;;;4994895;28;20411;-82
2023/04/05 12:41:27;;;;;;;11.70;7.20;;;;;;;;;;4993862;28;20426;-81
2023/04/05 12:43:59;;;;;;;9.90;6.90;;;;;;;;;;5010261;28;20485;-82
2023/04/05 12:46:38;;;;;;;8.47;6.50;;;;;;;;;;4993718;28;20505;-83
2023/04/05 12:49:04;;;;;;;8.07;7.27;;;;;;;;;;5010008;28;20422;-82
2023/04/05 12:51:31;;;;;;;7.87;6.87;;;;;;;;;;4993574;28;20411;-82
2023/04/05 12:53:57;;;;;;;10.13;8.33;;;;;;;;;;5010646;28;20429;-83
2023/04/05 12:56:23;;;;;;;8.70;7.60;;;;;;;;;;4993859;28;20388;-82
2023/04/05 12:58:50;;;;;;;9.83;8.73;;;;;;;;;;4993092;28;20481;-82
2023/04/05 13:01:16;;;;;;;10.13;7.50;;;;;;;;;;4993080;28;20430;-82
2023/04/05 13:03:45;;;;;;;10.70;7.73;;;;;;;;;;5009774;28;20461;-82
2023/04/05 13:06:11;;;;;;;8.53;7.60;;;;;;;;;;5008395;28;20427;-81
2023/04/05 13:08:37;;;;;;;10.43;7.50;;;;;;;;;;4994627;28;20466;-81
2023/04/05 13:11:03;;;;;;;9.13;8.20;;;;;;;;;;4993961;28;20419;-81
2023/04/05 13:13:29;;;;;;;7.90;6.93;;;;;;;;;;5008953;28;20408;-81
2023/04/05 13:15:55;;;;;;;10.90;7.60;;;;;;;;;;4993714;28;20381;-81
2023/04/05 13:18:21;;;;;;;12.70;8.83;;;;;;;;;;4993041;28;20424;-81
2023/04/05 13:20:47;;;;;;;11.73;9.03;;;;;;;;;;4992492;28;20409;-82
2023/04/05 13:23:13;;;;;;;12.00;9.17;;;;;;;;;;4993243;28;20528;-82
2023/04/05 13:25:40;;;;;;;11.87;9.00;;;;;;;;;;5009046;28;20473;-82
2023/04/05 13:28:06;;;;;;;10.50;8.10;;;;;;;;;;5008736;28;20804;-82
2023/04/05 13:30:32;;;;;;;13.43;8.20;;;;;;;;;;4998537;28;20801;-82
2023/04/05 13:32:58;;;;;;;11.20;9.60;;;;;;;;;;4997441;28;20437;-84
2023/04/05 13:35:24;;;;;;;10.23;9.23;;;;;;;;;;4993301;28;20386;-83
2023/04/05 13:37:51;;;;;;;12.33;9.40;;;;;;;;;;4992627;28;20389;-82
2023/04/05 13:40:17;;;;;;;10.43;9.37;;;;;;;;;;4976612;28;20400;-81
2023/04/05 13:42:43;;;;;;;12.53;10.40;;;;;;;;;;4992128;28;20462;-82
2023/04/05 13:45:09;;;;;;;11.93;10.00;;;;;;;;;;4992811;28;20407;-82
2023/04/05 13:47:35;;;;;;;10.17;8.77;;;;;;;;;;4993847;28;20385;-82
2023/04/05 13:50:02;;;;;;;10.03;8.93;;;;;;;;;;4975605;28;20485;-82
2023/04/05 13:52:28;;;;;;;9.43;8.53;;;;;;;;;;4992675;28;20393;-83
2023/04/05 13:54:54;;;;;;;11.47;8.60;;;;;;;;;;4976731;28;20408;-83
2023/04/05 13:57:20;;;;;;;10.13;8.53;;;;;;;;;;4992047;28;20422;-83
2023/04/05 13:59:46;;;;;;;13.23;9.17;;;;;;;;;;4993441;28;20424;-83
2023/04/05 14:02:13;;;;;;;10.80;9.70;;;;;;;;;;4993179;28;20415;-82
2023/04/05 14:04:39;;;;;;;11.17;9.93;;;;;;;;;;4979816;28;20577;-81
2023/04/05 14:07:06;;;;;;;11.30;10.20;;;;;;;;;;4998109;28;20419;-81
2023/04/05 14:09:32;;;;;;;10.83;9.70;;;;;;;;;;4996458;28;20456;-82
2023/04/05 14:12:01;;;;;;;13.60;9.17;;;;;;;;;;4998879;28;20473;-82
2023/04/05 14:14:27;;;;;;;13.20;10.17;;;;;;;;;;4996350;28;20419;-82
2023/04/05 14:16:53;;;;;;;10.57;8.70;;;;;;;;;;4980398;28;20423;-82
2023/04/05 14:19:19;;;;;;;12.37;9.27;;;;;;;;;;4979976;28;20556;-83
2023/04/05 14:21:46;;;;;;;10.20;9.20;;;;;;;;;;4979561;28;20426;-83
2023/04/05 14:24:12;;;;;;;12.80;9.37;;;;;;;;;;4980360;28;20441;-83
2023/04/05 14:26:38;;;;;;;15.40;11.27;;;;;;;;;;4996295;28;20465;-83
2023/04/05 14:29:04;;;;;;;10.40;9.30;;;;;;;;;;4996644;28;20489;-82
2023/04/05 14:31:30;;;;;;;13.40;10.07;;;;;;;;;;4983839;28;20893;-82
2023/04/05 14:33:56;;;;;;;11.13;10.07;;;;;;;;;;4993610;28;20450;-82
2023/04/05 14:36:22;;;;;;;13.37;9.10;;;;;;;;;;5016895;28;20394;-82
2023/04/05 14:38:49;;;;;;;23.23;10.20;;;;;;;;;;5015926;28;20404;-82
2023/04/05 14:41:15;;;;;;;10.30;9.00;;;;;;;;;;4999601;28;20434;-82